Time;durP1;ratioP1;P1;durP2;ratioP2;P2;SDS_P1;SDS_P2;PMS_P1;PMS_P2;Temp;Humidity;BMP_temperature;BMP_pressure;BME280_temperature;BME280_humidity;BME280_pressure;Samples;Min_cycle;Max_cycle;Signal;HPM_P1;HPM_P2
2022/05/19 00:02:01;;;;;;;3.17;2.88;;;21.60;47.60;;;21.93;41.63;98058.31;5027329;28;20262;-57
2022/05/19 00:04:29;;;;;;;3.35;2.90;;;21.50;47.40;;;21.87;41.46;98053.78;5026246;28;20354;-57
2022/05/19 00:06:57;;;;;;;4.15;3.33;;;21.40;47.60;;;21.82;41.58;98054.47;5027519;28;20279;-57
2022/05/19 00:09:25;;;;;;;3.20;2.90;;;21.40;47.60;;;21.79;41.99;98047.63;5026696;28;20053;-54
2022/05/19 00:11:55;;;;;;;6.40;3.50;;;21.40;47.70;;;21.78;41.70;98048.66;5027212;28;20056;-56
2022/05/19 00:14:23;;;;;;;5.03;2.88;;;21.40;47.50;;;21.78;41.59;98045.94;5027723;28;20060;-56
2022/05/19 00:16:56;;;;;;;4.13;3.20;;;21.50;47.40;;;21.78;41.74;98043.22;5027645;28;20085;-57
2022/05/19 00:19:26;;;;;;;3.35;2.95;;;21.50;47.10;;;21.76;41.99;98041.81;5027965;28;20391;-57
2022/05/19 00:21:54;;;;;;;3.10;2.80;;;21.40;47.30;;;21.69;41.70;98033.72;5027648;28;20361;-53
2022/05/19 00:24:24;;;;;;;4.63;3.17;;;21.30;47.90;;;21.62;42.18;98036.50;5027386;28;20059;-54
2022/05/19 00:26:53;;;;;;;4.32;3.08;;;21.20;48.20;;;21.59;42.16;98034.22;5025413;28;20061;-54
2022/05/19 00:29:22;;;;;;;3.55;3.25;;;21.20;48.00;;;21.60;42.12;98030.50;5026278;28;20343;-54
2022/05/19 00:31:50;;;;;;;4.10;3.03;;;21.30;48.10;;;21.54;42.32;98028.69;5026170;28;20041;-54
2022/05/19 00:34:18;;;;;;;6.13;3.22;;;21.30;48.10;;;21.46;42.00;98026.25;5027318;28;20053;-55
2022/05/19 00:36:55;;;;;;;5.57;3.25;;;21.20;47.70;;;21.48;42.31;98029.56;5027281;28;20047;-55
2022/05/19 00:39:23;;;;;;;3.90;2.80;;;21.30;47.80;;;21.46;42.40;98025.41;5026497;28;20233;-54
2022/05/19 00:44:41;;;;;;;4.22;2.90;;;21.30;47.60;;;21.40;42.27;98017.09;5035436;28;20061;-52
2022/05/19 00:47:19;;;;;;;3.85;3.33;;;21.20;47.60;;;21.38;42.61;98023.78;5026046;28;20049;-55
2022/05/19 00:49:49;;;;;;;3.97;3.45;;;21.20;47.90;;;21.35;42.09;98016.09;5026490;28;20057;-57
2022/05/19 00:52:42;;;;;;;5.57;3.20;;;21.20;47.90;;;21.32;42.27;98019.25;5026904;28;20051;-53
2022/05/19 00:55:41;;;;;;;4.60;4.15;;;21.20;48.50;;;21.30;42.47;98015.94;5026450;28;20064;-56
2022/05/19 00:58:29;;;;;;;3.58;3.00;;;21.10;48.80;;;21.27;42.77;98013.66;5026060;28;20068;-56
2022/05/19 01:00:57;;;;;;;4.90;3.05;;;21.10;48.80;;;21.21;42.92;98007.28;5025792;28;20292;-56
2022/05/19 01:03:33;;;;;;;3.50;3.20;;;20.90;48.60;;;21.15;42.57;98005.41;5027049;28;20234;-56
2022/05/19 01:06:14;;;;;;;4.03;3.08;;;20.80;48.80;;;21.10;43.38;98010.69;5028175;28;20057;-52
2022/05/19 01:08:48;;;;;;;4.35;3.15;;;20.80;49.00;;;21.07;42.85;98003.81;5027548;28;20049;-56
2022/05/19 01:11:18;;;;;;;4.70;3.47;;;20.70;49.30;;;21.04;43.19;98009.69;5041215;28;20057;-54
2022/05/19 01:13:45;;;;;;;4.57;3.80;;;20.70;49.20;;;20.99;43.28;98004.09;5026651;28;20260;-55
2022/05/19 01:16:15;;;;;;;3.80;3.13;;;20.70;49.60;;;20.97;43.49;98014.31;5027185;28;20270;-54
2022/05/19 01:18:43;;;;;;;4.68;3.25;;;20.70;49.60;;;20.93;43.24;98013.09;5027059;28;20422;-56
2022/05/19 01:21:14;;;;;;;4.85;3.50;;;20.60;49.50;;;20.92;43.11;98000.59;5025922;28;20050;-55
2022/05/19 01:23:54;;;;;;;4.53;3.50;;;20.60;49.50;;;20.88;43.39;98002.94;5026363;28;20061;-55
2022/05/19 01:26:28;;;;;;;3.67;3.30;;;20.70;49.30;;;20.84;43.41;98002.53;5028147;28;20531;-53
2022/05/19 01:28:58;;;;;;;4.60;3.58;;;20.70;49.70;;;20.82;43.73;98001.06;5026073;28;20239;-55
2022/05/19 01:31:49;;;;;;;4.93;3.58;;;20.50;49.60;;;20.79;43.70;98001.53;5026134;28;20064;-56
2022/05/19 01:34:24;;;;;;;4.85;3.88;;;20.50;50.10;;;20.79;43.79;98009.66;5025645;28;20054;-57
2022/05/19 01:36:52;;;;;;;4.45;4.05;;;20.60;49.60;;;20.77;43.78;97998.22;5026881;28;20053;-54
2022/05/19 01:39:29;;;;;;;;;;;20.60;49.30;;;20.72;44.13;98000.72;5027765;28;20626;-57
2022/05/19 01:42:45;;;;;;;4.60;3.53;;;20.50;50.60;;;20.72;44.03;97990.72;5024555;28;20149;-54
2022/05/19 01:45:41;;;;;;;4.65;3.70;;;20.50;50.40;;;20.70;43.85;97997.41;5026312;28;20057;-55
2022/05/19 01:48:28;;;;;;;6.32;4.10;;;20.50;50.50;;;20.68;43.84;97994.91;5026394;28;20057;-52
2022/05/19 01:51:31;;;;;;;5.38;4.13;;;20.50;50.20;;;20.63;44.00;97989.34;5025733;28;20091;-56
2022/05/19 01:54:25;;;;;;;4.45;3.58;;;20.40;50.30;;;20.61;44.01;97991.44;5026373;28;20324;-56
2022/05/19 01:57:02;;;;;;;4.57;3.83;;;20.40;50.50;;;20.59;43.53;97988.97;5026075;28;20049;-53
2022/05/19 01:59:55;;;;;;;4.95;3.25;;;20.30;49.70;;;20.59;43.64;97980.84;5025242;28;20038;-54
2022/05/19 02:02:48;;;;;;;4.30;3.30;;;20.30;50.20;;;20.61;43.73;97986.03;5026667;28;20057;-56
2022/05/19 02:05:56;;;;;;;5.50;3.53;;;20.30;49.50;;;20.57;43.25;97982.91;5025280;28;20060;-57
2022/05/19 02:08:39;;;;;;;5.28;4.15;;;20.30;49.90;;;20.56;43.28;97986.63;5026144;28;20072;-55
2022/05/19 02:11:13;;;;;;;5.85;4.35;;;20.20;49.80;;;20.50;43.80;97986.69;5025940;28;20062;-51
2022/05/19 02:13:41;;;;;;;4.90;3.65;;;20.00;50.40;;;20.40;43.84;97987.16;5028935;28;20057;-57
2022/05/19 02:16:14;;;;;;;3.90;3.55;;;19.90;51.00;;;20.29;44.63;97991.34;5030247;28;20067;-54
2022/05/19 02:18:44;;;;;;;4.88;4.38;;;19.80;52.10;;;20.17;44.57;97987.69;5029927;28;20056;-53
2022/05/19 02:21:16;;;;;;;4.18;3.40;;;19.60;52.20;;;20.08;44.62;97995.19;5029239;28;20355;-52
2022/05/19 02:23:45;;;;;;;5.95;4.03;;;19.40;52.40;;;19.97;45.02;97996.69;5029091;28;20059;-53
2022/05/19 02:26:13;;;;;;;5.03;4.18;;;19.30;52.90;;;19.88;45.21;97997.13;5029853;28;20054;-55
2022/05/19 02:28:55;;;;;;;4.22;3.35;;;19.20;53.10;;;19.77;45.36;97988.63;5029405;28;20059;-55
2022/05/19 02:31:25;;;;;;;3.90;3.30;;;19.10;54.10;;;19.66;45.68;97991.97;5028931;28;20072;-55
2022/05/19 02:33:53;;;;;;;18.10;4.63;;;19.00;53.60;;;19.58;45.73;97995.72;5029356;28;20359;-55
2022/05/19 02:36:21;;;;;;;6.45;3.90;;;18.90;53.80;;;19.53;45.83;97995.50;5030036;28;20045;-56
2022/05/19 02:38:48;;;;;;;7.22;3.83;;;18.90;53.90;;;19.52;45.88;98009.22;5029400;28;20071;-54
2022/05/19 02:41:18;;;;;;;4.70;3.90;;;18.80;53.90;;;19.47;45.87;98007.16;5028164;28;20068;-56
2022/05/19 02:43:46;;;;;;;7.35;3.47;;;18.80;54.10;;;19.40;46.01;98007.16;5029904;28;20055;-54
2022/05/19 02:46:13;;;;;;;5.28;3.55;;;18.70;54.10;;;19.38;45.84;98011.09;5029754;28;20067;-52
2022/05/19 02:48:41;;;;;;;5.00;3.25;;;18.70;54.00;;;19.36;45.89;98008.59;5028895;28;20060;-54
2022/05/19 02:51:09;;;;;;;4.93;3.30;;;18.70;54.10;;;19.35;45.77;98011.50;5028952;28;20045;-57
2022/05/19 02:53:37;;;;;;;6.30;4.05;;;18.70;53.70;;;19.34;45.97;97999.88;5029676;28;20255;-56
2022/05/19 02:56:05;;;;;;;6.28;3.67;;;18.70;53.80;;;19.33;45.82;97998.25;5029605;28;20049;-54
2022/05/19 02:58:33;;;;;;;5.28;3.33;;;18.70;53.90;;;19.32;46.00;97995.75;5029164;28;20068;-54
2022/05/19 03:01:01;;;;;;;3.72;3.35;;;18.70;54.00;;;19.28;46.00;97993.44;5029685;28;20254;-54
2022/05/19 03:03:28;;;;;;;4.95;3.95;;;18.70;54.10;;;19.24;46.18;97997.63;5029927;28;20064;-56
2022/05/19 03:05:58;;;;;;;5.85;3.47;;;18.60;54.20;;;19.19;46.40;98001.97;5028558;28;20041;-52
2022/05/19 03:08:26;;;;;;;4.70;3.78;;;18.60;54.50;;;19.13;46.40;97994.72;5029618;28;20050;-54
2022/05/19 03:10:53;;;;;;;4.88;3.55;;;18.50;54.70;;;19.03;46.23;97995.94;5030016;28;20056;-54
2022/05/19 03:13:23;;;;;;;3.30;3.00;;;18.40;54.30;;;18.96;46.07;97991.59;5028149;28;20042;-57
2022/05/19 03:15:51;;;;;;;3.83;3.38;;;18.40;53.80;;;18.97;45.96;97983.28;5028656;28;20056;-55
2022/05/19 03:18:19;;;;;;;4.38;3.00;;;18.50;53.40;;;18.99;45.89;97991.19;5030053;28;20049;-54
2022/05/19 03:20:47;;;;;;;3.33;3.03;;;18.60;52.90;;;19.02;45.65;97991.59;5028673;28;20355;-55
2022/05/19 03:23:15;;;;;;;4.18;3.63;;;18.60;52.50;;;19.05;45.58;97993.88;5027774;28;20053;-55
2022/05/19 03:25:43;;;;;;;4.05;3.50;;;18.70;52.20;;;19.13;45.42;97989.31;5028261;28;20059;-56
2022/05/19 03:28:14;;;;;;;5.50;3.63;;;18.80;51.90;;;19.16;45.17;97987.03;5027499;28;20041;-55
2022/05/19 03:30:43;;;;;;;6.25;3.13;;;18.90;51.50;;;19.18;44.99;97989.53;5027198;28;20053;-54
2022/05/19 03:33:12;;;;;;;4.07;3.20;;;18.90;51.20;;;19.23;44.94;97984.31;5027488;28;20259;-53
2022/05/19 03:35:42;;;;;;;2.80;2.50;;;19.00;50.90;;;19.30;44.70;97985.16;5028891;28;20251;-54
2022/05/19 03:38:11;;;;;;;3.70;2.97;;;19.10;50.50;;;19.34;44.57;97980.16;5029394;28;20063;-51
2022/05/19 03:40:38;;;;;;;4.18;3.25;;;19.10;50.30;;;19.36;44.34;97978.91;5026478;28;20061;-54
2022/05/19 03:43:06;;;;;;;3.60;3.20;;;19.20;50.10;;;19.34;44.13;97970.19;5027713;28;20151;-56
2022/05/19 03:45:43;;;;;;;6.28;3.08;;;19.10;50.60;;;19.32;44.21;97983.06;5028194;28;20079;-56
2022/05/19 03:48:14;;;;;;;4.07;2.85;;;19.10;50.00;;;19.27;44.32;97980.19;5028370;28;20045;-51
2022/05/19 03:50:46;;;;;;;4.65;2.83;;;19.00;50.30;;;19.26;44.59;97979.34;5028117;28;20053;-52
2022/05/19 03:53:14;;;;;;;3.15;2.72;;;19.00;50.50;;;19.19;44.69;97988.47;5026284;28;20045;-52
2022/05/19 03:55:42;;;;;;;4.93;3.35;;;18.80;51.00;;;19.13;44.73;97981.22;5028424;28;20059;-51
2022/05/19 03:58:10;;;;;;;3.80;3.00;;;18.80;52.00;;;19.11;45.05;97984.13;5028218;28;20053;-56
2022/05/19 04:00:38;;;;;;;4.00;2.85;;;18.80;51.30;;;19.13;44.88;97983.91;5027842;28;20361;-53
2022/05/19 04:03:06;;;;;;;4.43;3.30;;;18.80;51.00;;;19.15;44.89;97979.13;5027781;28;20087;-50
2022/05/19 04:05:34;;;;;;;4.22;3.17;;;18.90;51.00;;;19.15;45.00;97979.13;5028506;28;20049;-55
2022/05/19 04:08:02;;;;;;;3.97;3.60;;;18.80;50.70;;;19.16;44.62;97981.63;5028365;28;20056;-55
2022/05/19 04:10:30;;;;;;;3.53;3.22;;;18.80;50.70;;;19.19;44.52;97983.06;5028333;28;20056;-55
2022/05/19 04:12:58;;;;;;;4.88;3.30;;;18.90;50.60;;;19.22;44.40;97990.78;5028692;28;20051;-55
2022/05/19 04:15:26;;;;;;;6.30;3.30;;;19.00;50.30;;;19.26;44.41;97990.13;5027893;28;20050;-54
2022/05/19 04:17:54;;;;;;;4.50;3.25;;;18.90;50.50;;;19.26;44.54;97992.00;5027751;28;20167;-56
2022/05/19 04:20:22;;;;;;;3.95;2.58;;;18.80;50.60;;;19.23;44.51;98004.06;5026167;28;20050;-56
2022/05/19 04:22:50;;;;;;;4.03;3.10;;;18.80;50.90;;;19.16;44.58;98000.53;5027114;28;20054;-53
2022/05/19 04:25:17;;;;;;;5.53;3.30;;;18.80;51.20;;;19.13;44.97;98000.94;5027150;28;20054;-53
2022/05/19 04:27:45;;;;;;;6.53;3.70;;;18.70;51.30;;;19.08;44.95;98008.84;5027229;28;20045;-54
2022/05/19 04:30:13;;;;;;;5.22;3.65;;;18.80;51.20;;;19.07;45.32;98013.38;5027004;28;20057;-55
2022/05/19 04:32:43;;;;;;;4.15;2.85;;;18.80;52.10;;;19.04;45.42;98012.97;5026476;28;20052;-54
2022/05/19 04:35:13;;;;;;;5.68;3.90;;;18.80;51.90;;;19.01;45.48;98008.00;5025827;28;20061;-55
2022/05/19 04:37:42;;;;;;;3.20;2.90;;;18.70;52.00;;;19.02;45.51;98018.59;5026876;28;20061;-51
2022/05/19 04:40:11;;;;;;;4.25;3.05;;;18.70;51.80;;;19.02;45.34;98006.97;5027036;28;20269;-52
2022/05/19 04:42:40;;;;;;;4.60;2.88;;;18.80;51.70;;;19.02;45.36;98010.50;5027059;28;20068;-54
2022/05/19 04:45:12;;;;;;;6.75;3.08;;;18.80;51.40;;;19.04;45.21;98013.81;5027162;28;20057;-56
2022/05/19 04:47:41;;;;;;;4.20;3.23;;;18.80;51.20;;;19.03;44.98;98000.53;5026428;28;20057;-55
2022/05/19 04:50:10;;;;;;;3.55;3.05;;;18.90;50.80;;;19.02;44.86;98002.41;5027598;28;20054;-56
2022/05/19 04:52:38;;;;;;;4.15;3.00;;;18.80;50.70;;;19.06;44.74;98008.22;5028042;28;20233;-55
2022/05/19 04:55:08;;;;;;;5.80;2.92;;;18.80;50.60;;;19.08;44.65;97995.34;5025378;28;20324;-53
2022/05/19 04:57:37;;;;;;;3.95;3.00;;;18.90;50.30;;;19.15;44.57;98009.66;5027283;28;20466;-53
2022/05/19 05:00:08;;;;;;;3.45;2.90;;;19.00;50.20;;;19.21;44.50;98011.53;5025423;28;20348;-54
2022/05/19 05:02:36;;;;;;;3.30;3.00;;;19.10;50.10;;;19.17;44.50;98026.47;5027325;28;20091;-51
2022/05/19 05:05:06;;;;;;;5.18;2.90;;;19.00;49.80;;;19.17;44.56;98020.25;5026185;28;20061;-54
2022/05/19 05:07:34;;;;;;;4.15;3.08;;;19.10;50.10;;;19.12;44.79;98026.28;5026153;28;20401;-57
2022/05/19 05:10:03;;;;;;;4.55;2.97;;;19.10;50.10;;;19.15;44.85;98017.75;5027896;28;20251;-56
2022/05/19 05:12:31;;;;;;;3.70;3.00;;;19.10;50.20;;;19.17;44.73;98021.06;5027200;28;20045;-56
2022/05/19 05:14:59;;;;;;;4.15;3.33;;;19.10;50.20;;;19.18;44.75;98025.44;5026458;28;20071;-53
2022/05/19 05:17:26;;;;;;;3.25;2.95;;;19.00;50.20;;;19.22;44.81;98025.84;5027117;28;20053;-56
2022/05/19 05:19:54;;;;;;;3.85;2.65;;;19.10;50.30;;;19.25;44.76;98022.72;5027503;28;20065;-54
2022/05/19 05:22:22;;;;;;;3.30;3.00;;;19.10;50.30;;;19.26;44.64;98022.53;5026137;28;20069;-56
2022/05/19 05:24:50;;;;;;;4.38;3.30;;;19.20;50.00;;;19.31;44.68;98030.03;5026655;28;20056;-52
2022/05/19 05:27:18;;;;;;;4.57;2.97;;;19.20;50.00;;;19.33;44.68;98032.47;5028148;28;20051;-56
2022/05/19 05:29:46;;;;;;;4.53;3.22;;;19.20;50.20;;;19.33;44.74;98029.78;5026852;28;20400;-54
2022/05/19 05:32:14;;;;;;;4.60;3.05;;;19.10;50.60;;;19.27;44.95;98029.59;5027474;28;20049;-57
2022/05/19 05:34:42;;;;;;;4.72;3.65;;;19.10;50.90;;;19.30;45.01;98025.63;5026422;28;20049;-55
2022/05/19 05:37:09;;;;;;;4.53;3.35;;;19.10;51.10;;;19.32;45.00;98028.97;5025102;28;20234;-56
2022/05/19 05:39:37;;;;;;;5.68;3.05;;;19.00;51.10;;;19.36;45.22;98032.09;5025181;28;20045;-53
2022/05/19 05:42:06;;;;;;;5.15;3.00;;;19.10;51.40;;;19.38;45.19;98022.72;5025670;28;20054;-52
2022/05/19 05:44:34;;;;;;;3.88;2.70;;;19.10;51.40;;;19.42;45.34;98023.16;5026359;28;20056;-52
2022/05/19 05:47:02;;;;;;;3.60;3.17;;;19.20;51.20;;;19.45;45.29;98028.97;5028636;28;20049;-55
2022/05/19 05:49:30;;;;;;;5.28;2.92;;;19.20;51.60;;;19.48;45.63;98020.47;5029792;28;20358;-55
2022/05/19 05:51:57;;;;;;;3.75;3.45;;;19.30;52.80;;;19.50;46.25;98024.81;5030846;28;20037;-55
2022/05/19 05:54:25;;;;;;;3.75;3.30;;;19.30;52.30;;;19.53;46.45;98019.81;5029524;28;20041;-56
2022/05/19 05:56:55;;;;;;;5.30;3.03;;;19.40;52.80;;;19.55;46.18;98033.13;5029552;28;20053;-55
2022/05/19 05:59:24;;;;;;;3.38;2.97;;;19.50;52.40;;;19.59;45.99;98037.88;5027634;28;20061;-62
2022/05/19 06:01:52;;;;;;;6.03;2.85;;;19.50;52.10;;;19.63;45.79;98031.00;5029019;28;20053;-58
2022/05/19 06:04:20;;;;;;;2.80;2.60;;;19.50;51.80;;;19.68;45.56;98033.09;5029989;28;20050;-56
2022/05/19 06:06:48;;;;;;;3.38;3.08;;;19.50;51.60;;;19.65;45.61;98037.03;5029456;28;20057;-58
2022/05/19 06:09:16;;;;;;;3.67;2.80;;;19.60;51.40;;;19.68;45.94;98033.09;5029214;28;20050;-59
2022/05/19 06:11:44;;;;;;;4.35;2.95;;;19.70;51.80;;;19.74;46.31;98023.38;5029644;28;20049;-54
2022/05/19 06:14:12;;;;;;;4.82;3.40;;;19.70;52.50;;;19.82;46.67;98031.22;5028560;28;20072;-56
2022/05/19 06:16:41;;;;;;;5.65;3.20;;;19.70;53.00;;;19.87;46.62;98031.41;5029671;28;20059;-54
2022/05/19 06:19:08;;;;;;;5.40;4.03;;;19.70;53.30;;;19.91;46.84;98027.28;5028746;28;20053;-55
2022/05/19 06:21:39;;;;;;;9.23;3.90;;;19.80;53.60;;;19.97;46.96;98025.59;5030047;28;20057;-57
2022/05/19 06:24:08;;;;;;;7.15;3.58;;;19.80;53.70;;;20.01;47.18;98033.06;5028929;28;20059;-56
2022/05/19 06:26:39;;;;;;;4.15;3.70;;;19.90;53.80;;;20.05;46.91;98030.75;5028964;28;20049;-56
2022/05/19 06:29:09;;;;;;;4.22;3.20;;;20.00;53.40;;;20.11;47.09;98029.09;5029007;28;20045;-57
2022/05/19 06:31:37;;;;;;;4.50;2.65;;;20.10;53.40;;;20.15;46.60;98033.84;5029118;28;20053;-57
2022/05/19 06:34:05;;;;;;;4.28;3.17;;;20.10;53.00;;;20.18;47.03;98036.13;5030055;28;20239;-56
2022/05/19 06:36:33;;;;;;;6.05;3.70;;;20.20;53.00;;;20.22;47.01;98031.09;5028186;28;20053;-55
2022/05/19 06:39:01;;;;;;;5.65;3.25;;;20.20;53.20;;;20.30;46.86;98030.03;5029844;28;20348;-57
2022/05/19 06:44:17;;;;;;;8.80;3.35;;;20.30;52.80;;;20.38;46.67;98035.22;5028937;28;20049;-59
2022/05/19 06:46:46;;;;;;;3.33;2.90;;;20.40;52.90;;;20.42;46.58;98031.03;5030406;28;20255;-60
2022/05/19 06:49:17;;;;;;;4.75;3.60;;;20.40;52.70;;;20.42;46.71;98034.56;5028614;28;20064;-59
2022/05/19 06:51:45;;;;;;;4.75;3.10;;;20.50;52.80;;;20.49;46.88;98036.41;5031008;28;20053;-58
2022/05/19 06:54:20;;;;;;;5.03;3.13;;;20.60;52.90;;;20.52;46.96;98041.38;5027864;28;20049;-58
2022/05/19 06:56:47;;;;;;;4.30;3.22;;;20.60;53.10;;;20.53;47.51;98037.63;5027532;28;20059;-57
2022/05/19 06:59:16;;;;;;;5.28;4.18;;;20.70;53.30;;;20.57;47.51;98036.16;5026742;28;20060;-59
2022/05/19 07:01:47;;;;;;;4.90;3.38;;;20.70;53.30;;;20.62;47.42;98042.59;5029360;28;20750;-60
2022/05/19 07:04:16;;;;;;;4.05;3.22;;;20.80;53.10;;;20.69;47.27;98050.69;5030137;28;20053;-55
2022/05/19 07:06:44;;;;;;;5.22;3.47;;;20.80;53.10;;;20.74;46.94;98040.03;5028600;28;20057;-59
2022/05/19 07:09:12;;;;;;;5.10;3.30;;;20.80;52.50;;;20.83;47.04;98046.84;5028523;28;20144;-57
2022/05/19 07:11:40;;;;;;;5.32;3.22;;;21.00;52.50;;;20.89;46.65;98049.75;5042798;28;20067;-58
2022/05/19 07:14:11;;;;;;;3.38;2.92;;;21.00;52.30;;;20.98;46.56;98045.75;5028920;28;20253;-53
2022/05/19 07:16:41;;;;;;;10.55;4.28;;;21.10;52.20;;;21.03;46.22;98045.91;5027555;28;20221;-54
2022/05/19 07:22:05;;;;;;;6.88;2.95;;;21.20;51.70;;;21.15;46.12;98043.31;5028819;28;20047;-55
2022/05/19 07:24:34;;;;;;;4.70;2.92;;;21.30;51.60;;;21.20;46.42;98038.09;5028624;28;20061;-55
2022/05/19 07:27:02;;;;;;;4.55;3.17;;;21.40;51.70;;;21.27;46.39;98035.31;5028498;28;20239;-53
2022/05/19 07:29:30;;;;;;;6.03;3.00;;;21.50;51.70;;;21.32;46.30;98035.50;5028125;28;20041;-54
2022/05/19 07:32:03;;;;;;;4.80;3.70;;;21.50;51.70;;;21.39;46.19;98028.97;5025921;28;20279;-55
2022/05/19 07:34:36;;;;;;;5.88;3.30;;;21.60;51.40;;;21.45;45.86;98027.28;5027175;28;20052;-55
2022/05/19 07:37:04;;;;;;;3.67;2.90;;;21.70;51.40;;;21.50;45.78;98030.19;5027356;28;20050;-53
2022/05/19 07:39:33;;;;;;;5.18;3.20;;;21.70;51.40;;;21.59;46.23;98036.94;5028245;28;20053;-55
2022/05/19 07:42:02;;;;;;;5.78;3.75;;;21.80;51.20;;;21.65;45.55;98042.53;5027735;28;20049;-55
2022/05/19 07:44:30;;;;;;;5.63;3.08;;;21.80;51.10;;;21.72;45.92;98051.44;5029188;28;20053;-54
2022/05/19 07:46:58;;;;;;;4.60;3.38;;;21.90;51.60;;;21.73;46.32;98050.38;5018910;28;20235;-56
2022/05/19 07:49:26;;;;;;;4.78;3.38;;;21.90;51.40;;;21.78;46.10;98043.22;5008482;28;20045;-55
2022/05/19 07:51:54;;;;;;;6.60;3.50;;;22.00;52.20;;;21.86;46.21;98041.28;5008691;28;20244;-55
2022/05/19 07:54:26;;;;;;;4.03;3.63;;;22.10;51.80;;;21.91;46.37;98036.84;5008223;28;20398;-54
2022/05/19 07:56:55;;;;;;;6.28;3.45;;;22.10;51.80;;;21.96;46.40;98044.31;5007475;28;20046;-55
2022/05/19 07:59:24;;;;;;;4.70;3.50;;;22.20;51.80;;;22.00;46.29;98043.66;5012559;28;20045;-52
2022/05/19 08:01:53;;;;;;;3.78;2.90;;;22.20;52.00;;;22.09;46.26;98038.75;5037242;28;20057;-55
2022/05/19 08:04:23;;;;;;;3.72;3.40;;;22.30;52.00;;;22.15;46.25;98045.16;5037369;28;20061;-54
2022/05/19 08:06:52;;;;;;;4.50;3.17;;;22.30;51.90;;;22.20;46.64;98038.00;5035769;28;20251;-49
2022/05/19 08:17:58;;;;;;;5.28;3.90;;;22.60;52.10;;;22.46;46.72;98029.78;5035330;28;20340;-54
2022/05/19 08:20:28;;;;;;;5.00;3.85;;;22.60;52.40;;;22.56;46.35;98036.31;5037329;28;20051;-54
2022/05/19 08:22:56;;;;;;;5.35;3.30;;;22.80;52.20;;;22.65;46.21;98036.84;5033635;28;20053;-54
2022/05/19 08:25:27;;;;;;;7.20;3.70;;;22.80;51.90;;;22.74;46.04;98051.75;5037777;28;20041;-57
2022/05/19 08:27:58;;;;;;;6.10;3.92;;;22.90;52.00;;;22.79;46.17;98041.00;5036760;28;20263;-56
2022/05/19 08:30:27;;;;;;;8.73;3.88;;;23.00;52.10;;;22.87;46.37;98042.56;5036993;28;20079;-55
2022/05/19 08:32:55;;;;;;;5.30;4.07;;;23.00;52.10;;;22.95;46.09;98042.28;5052517;28;20053;-56
2022/05/19 08:35:25;;;;;;;5.18;4.32;;;23.10;51.80;;;23.02;46.19;98044.88;5037755;28;20399;-55
2022/05/19 08:37:53;;;;;;;3.97;3.55;;;23.20;51.80;;;23.10;46.16;98041.03;5037610;28;20205;-56
2022/05/19 08:40:23;;;;;;;4.03;3.22;;;23.30;52.00;;;23.17;46.06;98045.31;5037305;28;20053;-56
2022/05/19 08:42:58;;;;;;;4.22;3.50;;;23.40;51.60;;;23.25;46.16;98041.41;5033565;28;20063;-55
2022/05/19 08:45:42;;;;;;;5.65;3.60;;;23.50;51.80;;;23.34;45.60;98034.59;5035712;28;20057;-55
2022/05/19 08:48:21;;;;;;;7.97;4.20;;;23.50;51.20;;;23.47;45.42;98043.59;5018524;28;20766;-56
2022/05/19 08:50:55;;;;;;;9.95;4.38;;;23.70;51.10;;;23.54;45.27;98036.97;5036531;28;20030;-55
2022/05/19 08:53:30;;;;;;;6.63;3.30;;;23.70;51.00;;;23.61;45.38;98036.03;5036585;28;20351;-55
2022/05/19 08:56:25;;;;;;;4.55;3.92;;;23.80;51.00;;;23.66;45.21;98039.69;5035533;28;20045;-55
2022/05/19 08:59:37;;;;;;;8.25;4.07;;;23.90;50.70;;;23.74;45.41;98041.22;5035917;28;20041;-55
2022/05/19 09:02:13;;;;;;;5.82;4.10;;;24.00;50.70;;;23.82;44.92;98043.63;5038185;28;20063;-56
2022/05/19 09:05:42;;;;;;;5.38;4.07;;;24.00;50.50;;;23.86;45.00;98033.91;5036309;28;20080;-56
2022/05/19 09:09:02;;;;;;;7.63;3.70;;;24.10;50.20;;;23.97;45.06;98030.38;5022539;28;20111;-56
2022/05/19 09:11:49;;;;;;;6.72;3.97;;;24.20;50.60;;;24.11;44.67;98032.84;5037657;28;20045;-56
2022/05/19 09:14:28;;;;;;;5.03;3.40;;;24.40;49.70;;;24.14;44.14;98030.47;5037394;28;20045;-57
2022/05/19 09:17:07;;;;;;;3.78;3.38;;;24.40;48.90;;;24.18;44.28;98033.53;5037174;28;20361;-56
2022/05/19 09:19:53;;;;;;;7.18;3.47;;;24.40;48.80;;;24.26;44.41;98024.19;5038741;28;20375;-55
2022/05/19 09:22:26;;;;;;;4.38;3.92;;;24.60;49.20;;;24.31;43.88;98025.13;5035015;28;20053;-55
2022/05/19 09:24:54;;;;;;;4.68;3.90;;;24.60;49.00;;;24.35;43.68;98030.91;5036135;28;20041;-54
2022/05/19 09:27:23;;;;;;;9.02;3.72;;;24.70;48.60;;;24.42;43.67;98028.84;5038077;28;20064;-57
2022/05/19 09:29:55;;;;;;;6.10;4.15;;;24.80;48.50;;;24.51;44.20;98032.06;5037126;28;20041;-54
2022/05/19 09:32:45;;;;;;;3.60;3.20;;;24.90;49.00;;;24.60;44.59;98025.16;5038415;28;20080;-56
2022/05/19 09:35:25;;;;;;;4.45;3.80;;;25.10;49.30;;;24.76;44.39;98024.38;5037953;28;20062;-57
2022/05/19 09:38:35;;;;;;;5.63;5.05;;;25.20;49.00;;;24.84;43.76;98034.06;5038632;28;20045;-57
2022/05/19 09:41:24;;;;;;;5.03;3.60;;;25.30;48.60;;;24.93;43.73;98035.31;5052384;28;20058;-57
2022/05/19 09:43:55;;;;;;;4.43;3.85;;;25.40;47.90;;;24.99;43.54;98030.78;5032459;28;20045;-56
2022/05/19 09:46:30;;;;;;;6.30;3.50;;;25.40;47.90;;;25.05;43.78;98040.72;5036442;28;20045;-57
2022/05/19 09:49:06;;;;;;;4.35;3.83;;;25.50;47.90;;;25.14;43.74;98038.38;5018738;28;20049;-57
2022/05/19 09:51:43;;;;;;;4.72;3.20;;;25.60;48.20;;;25.18;43.55;98046.91;5034363;28;20056;-57
2022/05/19 09:54:12;;;;;;;5.03;4.47;;;25.70;48.00;;;25.21;43.46;98043.69;5037337;28;20049;-58
2022/05/19 09:56:52;;;;;;;6.50;4.10;;;25.70;47.00;;;25.24;42.86;98043.22;5035819;28;20042;-57
2022/05/19 09:59:34;;;;;;;7.13;4.30;;;25.80;46.50;;;25.30;42.92;98047.69;5036533;28;20060;-56
2022/05/19 10:02:36;;;;;;;5.88;3.70;;;25.80;47.20;;;25.39;42.41;98046.22;5035959;28;20055;-55
2022/05/19 10:05:45;;;;;;;4.72;3.53;;;25.80;45.90;;;25.32;41.41;98040.13;5035738;28;20108;-57
2022/05/19 10:08:20;;;;;;;7.18;3.70;;;25.80;44.80;;;25.39;41.31;98042.66;5036405;28;20067;-55
2022/05/19 10:11:27;;;;;;;5.30;3.97;;;25.80;44.70;;;25.37;41.58;98037.44;5036107;28;20056;-57
2022/05/19 10:14:07;;;;;;;3.55;3.25;;;25.80;44.60;;;25.45;41.52;98036.22;5036295;28;20259;-55
2022/05/19 10:17:19;;;;;;;6.50;3.72;;;25.80;45.20;;;25.46;41.47;98038.69;5036776;28;20379;-57
2022/05/19 10:20:18;;;;;;;5.22;3.70;;;25.90;44.70;;;25.51;41.42;98033.34;5035646;28;20056;-57
2022/05/19 10:23:46;;;;;;;5.07;3.70;;;25.90;44.20;;;25.56;41.01;98029.03;5036322;28;20068;-55
2022/05/19 10:26:29;;;;;;;5.10;3.20;;;25.90;44.70;;;25.63;41.11;98026.94;5035781;28;20056;-57
2022/05/19 10:32:49;;;;;;;3.47;3.17;;;26.10;44.40;;;25.77;40.93;98022.81;5037590;28;20057;-56
2022/05/19 10:35:38;;;;;;;4.15;3.17;;;26.20;44.70;;;25.81;41.31;98018.50;5039443;28;20060;-56
2022/05/19 10:38:43;;;;;;;5.90;3.38;;;26.30;45.10;;;25.89;41.53;98012.63;5037997;28;20278;-55
2022/05/19 10:41:59;;;;;;;6.80;3.60;;;26.30;45.20;;;25.98;40.50;98010.34;5030640;28;20060;-55
2022/05/19 10:44:55;;;;;;;4.45;3.25;;;26.30;45.50;;;26.10;41.06;98011.03;5024091;28;20049;-55
2022/05/19 10:47:47;;;;;;;4.68;3.85;;;26.50;44.60;;;26.22;41.17;98007.34;5025152;28;20054;-56
2022/05/19 10:50:20;;;;;;;4.40;3.67;;;26.60;44.80;;;26.25;40.42;98007.69;5024491;28;20049;-50
2022/05/19 10:53:03;;;;;;;4.18;3.70;;;26.70;43.70;;;26.30;40.75;98007.72;5024950;28;20366;-50
2022/05/19 10:56:20;;;;;;;4.82;3.50;;;26.70;44.40;;;26.35;40.83;98004.25;5023373;28;20054;-53
2022/05/19 10:59:22;;;;;;;4.47;3.60;;;26.80;44.30;;;26.43;40.91;97998.34;5023700;28;20041;-57
2022/05/19 11:02:11;;;;;;;6.35;4.13;;;26.90;43.90;;;26.52;40.38;97991.34;5024824;28;20233;-56
2022/05/19 11:05:36;;;;;;;4.65;3.50;;;27.00;44.70;;;26.62;40.19;97996.13;5022750;28;20046;-51
2022/05/19 11:08:48;;;;;;;4.75;3.88;;;27.10;43.70;;;26.73;40.07;97985.31;5035987;28;20123;-52
2022/05/19 11:11:38;;;;;;;6.78;3.78;;;27.20;43.70;;;26.81;39.88;97995.75;5033439;28;20521;-55
2022/05/19 11:14:25;;;;;;;4.30;3.38;;;27.20;44.30;;;26.87;40.07;97990.09;5014847;28;20054;-54